sensor_id;sensor_type;location;lat;lon;timestamp;temperature;humidity
39103;DHT22;24847;48.218;16.414;2024-01-11T00:02:33;-3.80;80.60
39103;DHT22;24847;48.218;16.414;2024-01-11T00:07:35;-4.00;80.60
39103;DHT22;24847;48.218;16.414;2024-01-11T00:12:39;-4.00;81.00
39103;DHT22;24847;48.218;16.414;2024-01-11T00:17:41;-4.10;81.20
39103;DHT22;24847;48.218;16.414;2024-01-11T00:22:43;-4.10;81.50
39103;DHT22;24847;48.218;16.414;2024-01-11T00:27:47;-4.00;81.00
39103;DHT22;24847;48.218;16.414;2024-01-11T00:32:49;-4.10;81.20
39103;DHT22;24847;48.218;16.414;2024-01-11T00:37:51;-4.10;81.60
39103;DHT22;24847;48.218;16.414;2024-01-11T00:42:55;-4.20;81.60
39103;DHT22;24847;48.218;16.414;2024-01-11T00:47:57;-4.20;81.70
39103;DHT22;24847;48.218;16.414;2024-01-11T00:52:59;-4.10;81.40
39103;DHT22;24847;48.218;16.414;2024-01-11T00:58:03;-4.10;81.10
39103;DHT22;24847;48.218;16.414;2024-01-11T01:03:05;-4.20;81.40
39103;DHT22;24847;48.218;16.414;2024-01-11T01:08:07;-4.10;82.40
39103;DHT22;24847;48.218;16.414;2024-01-11T01:13:11;-4.20;82.80
39103;DHT22;24847;48.218;16.414;2024-01-11T01:18:13;-4.30;81.90
39103;DHT22;24847;48.218;16.414;2024-01-11T01:23:15;-4.20;82.00
39103;DHT22;24847;48.218;16.414;2024-01-11T01:28:19;-4.20;81.70
39103;DHT22;24847;48.218;16.414;2024-01-11T01:33:21;-4.30;81.90
39103;DHT22;24847;48.218;16.414;2024-01-11T01:38:24;-4.20;82.30
39103;DHT22;24847;48.218;16.414;2024-01-11T01:43:27;-4.20;82.20
39103;DHT22;24847;48.218;16.414;2024-01-11T01:48:29;-4.40;82.50
39103;DHT22;24847;48.218;16.414;2024-01-11T01:53:32;-4.40;82.70
39103;DHT22;24847;48.218;16.414;2024-01-11T01:58:35;-4.30;82.20
39103;DHT22;24847;48.218;16.414;2024-01-11T02:03:38;-4.40;82.30
39103;DHT22;24847;48.218;16.414;2024-01-11T02:08:41;-4.30;82.10
39103;DHT22;24847;48.218;16.414;2024-01-11T02:13:46;-4.40;81.80
39103;DHT22;24847;48.218;16.414;2024-01-11T02:18:49;-4.40;82.80
39103;DHT22;24847;48.218;16.414;2024-01-11T02:24:02;-4.50;83.20
39103;DHT22;24847;48.218;16.414;2024-01-11T02:29:05;-4.50;82.10
39103;DHT22;24847;48.218;16.414;2024-01-11T02:34:07;-4.60;82.00
39103;DHT22;24847;48.218;16.414;2024-01-11T02:39:12;-4.70;83.30
39103;DHT22;24847;48.218;16.414;2024-01-11T02:44:15;-4.70;84.50
39103;DHT22;24847;48.218;16.414;2024-01-11T02:49:17;-4.70;83.60
39103;DHT22;24847;48.218;16.414;2024-01-11T02:54:23;-4.60;83.40
39103;DHT22;24847;48.218;16.414;2024-01-11T02:59:25;-4.50;83.20
39103;DHT22;24847;48.218;16.414;2024-01-11T03:04:27;-4.70;83.40
39103;DHT22;24847;48.218;16.414;2024-01-11T03:09:31;-4.60;83.10
39103;DHT22;24847;48.218;16.414;2024-01-11T03:14:34;-4.60;83.00
39103;DHT22;24847;48.218;16.414;2024-01-11T03:19:39;-4.50;83.20
39103;DHT22;24847;48.218;16.414;2024-01-11T03:24:43;-4.70;82.70
39103;DHT22;24847;48.218;16.414;2024-01-11T03:29:45;-4.70;82.80
39103;DHT22;24847;48.218;16.414;2024-01-11T03:34:47;-4.60;83.10
39103;DHT22;24847;48.218;16.414;2024-01-11T03:39:51;-4.60;82.90
39103;DHT22;24847;48.218;16.414;2024-01-11T03:44:53;-4.60;82.50
39103;DHT22;24847;48.218;16.414;2024-01-11T03:49:55;-4.80;82.80
39103;DHT22;24847;48.218;16.414;2024-01-11T03:54:59;-4.70;83.00
39103;DHT22;24847;48.218;16.414;2024-01-11T04:00:01;-4.80;83.20
39103;DHT22;24847;48.218;16.414;2024-01-11T04:05:05;-5.00;84.50
39103;DHT22;24847;48.218;16.414;2024-01-11T04:10:10;-5.00;84.40
39103;DHT22;24847;48.218;16.414;2024-01-11T04:15:12;-5.00;84.30
39103;DHT22;24847;48.218;16.414;2024-01-11T04:20:14;-4.90;84.70
39103;DHT22;24847;48.218;16.414;2024-01-11T04:25:18;-5.10;85.10
39103;DHT22;24847;48.218;16.414;2024-01-11T04:30:21;-5.10;85.60
39103;DHT22;24847;48.218;16.414;2024-01-11T04:35:23;-5.10;84.80
39103;DHT22;24847;48.218;16.414;2024-01-11T04:40:26;-5.20;84.80
39103;DHT22;24847;48.218;16.414;2024-01-11T04:45:28;-5.20;84.50
39103;DHT22;24847;48.218;16.414;2024-01-11T04:50:30;-5.40;85.50
39103;DHT22;24847;48.218;16.414;2024-01-11T04:55:34;-5.20;84.90
39103;DHT22;24847;48.218;16.414;2024-01-11T05:00:37;-5.20;85.00
39103;DHT22;24847;48.218;16.414;2024-01-11T05:05:39;-5.40;85.30
39103;DHT22;24847;48.218;16.414;2024-01-11T05:10:43;-5.10;84.50
39103;DHT22;24847;48.218;16.414;2024-01-11T05:15:46;-5.10;84.30
39103;DHT22;24847;48.218;16.414;2024-01-11T05:20:48;-5.50;85.20
39103;DHT22;24847;48.218;16.414;2024-01-11T05:25:52;-5.30;84.20
39103;DHT22;24847;48.218;16.414;2024-01-11T05:30:54;-5.40;84.70
39103;DHT22;24847;48.218;16.414;2024-01-11T05:35:56;-5.50;85.20
39103;DHT22;24847;48.218;16.414;2024-01-11T05:41:00;-5.30;84.70
39103;DHT22;24847;48.218;16.414;2024-01-11T05:46:02;-5.30;85.30
39103;DHT22;24847;48.218;16.414;2024-01-11T05:51:05;-5.40;85.70
39103;DHT22;24847;48.218;16.414;2024-01-11T05:56:09;-5.40;84.90
39103;DHT22;24847;48.218;16.414;2024-01-11T06:01:12;-5.20;84.40
39103;DHT22;24847;48.218;16.414;2024-01-11T06:06:15;-5.30;84.80
39103;DHT22;24847;48.218;16.414;2024-01-11T06:11:18;-5.40;85.20
39103;DHT22;24847;48.218;16.414;2024-01-11T06:16:21;-5.50;84.40
39103;DHT22;24847;48.218;16.414;2024-01-11T06:21:23;-5.50;84.60
39103;DHT22;24847;48.218;16.414;2024-01-11T06:26:27;-5.40;84.50
39103;DHT22;24847;48.218;16.414;2024-01-11T06:31:29;-5.30;84.30
39103;DHT22;24847;48.218;16.414;2024-01-11T06:36:33;-5.30;84.40
39103;DHT22;24847;48.218;16.414;2024-01-11T06:41:36;-5.20;84.00
39103;DHT22;24847;48.218;16.414;2024-01-11T06:46:39;-5.30;84.70
39103;DHT22;24847;48.218;16.414;2024-01-11T06:51:42;-5.00;83.50
39103;DHT22;24847;48.218;16.414;2024-01-11T06:56:45;-5.30;85.20
39103;DHT22;24847;48.218;16.414;2024-01-11T07:01:48;-5.50;86.30
39103;DHT22;24847;48.218;16.414;2024-01-11T07:06:50;-5.40;85.80
39103;DHT22;24847;48.218;16.414;2024-01-11T07:11:54;-5.50;85.00
39103;DHT22;24847;48.218;16.414;2024-01-11T07:16:56;-5.40;84.40
39103;DHT22;24847;48.218;16.414;2024-01-11T07:21:58;-5.70;85.00
39103;DHT22;24847;48.218;16.414;2024-01-11T07:27:02;-5.70;84.90
39103;DHT22;24847;48.218;16.414;2024-01-11T07:32:05;-5.80;85.90
39103;DHT22;24847;48.218;16.414;2024-01-11T07:37:07;-5.60;85.20
39103;DHT22;24847;48.218;16.414;2024-01-11T07:42:11;-5.90;85.70
39103;DHT22;24847;48.218;16.414;2024-01-11T07:47:14;-5.80;86.30
39103;DHT22;24847;48.218;16.414;2024-01-11T07:52:16;-5.80;85.90
39103;DHT22;24847;48.218;16.414;2024-01-11T07:57:19;-5.60;85.70
39103;DHT22;24847;48.218;16.414;2024-01-11T08:02:21;-5.30;84.00
39103;DHT22;24847;48.218;16.414;2024-01-11T08:07:24;-5.20;84.50
39103;DHT22;24847;48.218;16.414;2024-01-11T08:12:27;-5.20;84.40
39103;DHT22;24847;48.218;16.414;2024-01-11T08:17:30;-5.20;84.70
39103;DHT22;24847;48.218;16.414;2024-01-11T08:22:32;-5.20;85.20
39103;DHT22;24847;48.218;16.414;2024-01-11T08:27:38;-5.30;84.10
39103;DHT22;24847;48.218;16.414;2024-01-11T08:32:41;-5.30;84.70
39103;DHT22;24847;48.218;16.414;2024-01-11T08:37:43;-5.10;83.30
39103;DHT22;24847;48.218;16.414;2024-01-11T08:42:47;-4.90;83.70
39103;DHT22;24847;48.218;16.414;2024-01-11T08:47:49;-4.60;82.10
39103;DHT22;24847;48.218;16.414;2024-01-11T08:52:52;-4.70;82.70
39103;DHT22;24847;48.218;16.414;2024-01-11T08:57:57;-4.40;82.20
39103;DHT22;24847;48.218;16.414;2024-01-11T09:02:59;-4.20;81.50
39103;DHT22;24847;48.218;16.414;2024-01-11T09:08:02;-4.10;80.70
39103;DHT22;24847;48.218;16.414;2024-01-11T09:13:09;-4.00;80.30
39103;DHT22;24847;48.218;16.414;2024-01-11T09:18:14;-3.90;80.00
39103;DHT22;24847;48.218;16.414;2024-01-11T09:23:18;-3.80;79.20
39103;DHT22;24847;48.218;16.414;2024-01-11T09:28:21;-3.80;78.90
39103;DHT22;24847;48.218;16.414;2024-01-11T09:33:25;-3.70;78.60
39103;DHT22;24847;48.218;16.414;2024-01-11T09:38:28;-3.60;78.10
39103;DHT22;24847;48.218;16.414;2024-01-11T09:43:32;-3.50;77.80
39103;DHT22;24847;48.218;16.414;2024-01-11T09:48:36;-3.50;77.30
39103;DHT22;24847;48.218;16.414;2024-01-11T09:53:40;-3.50;77.30
39103;DHT22;24847;48.218;16.414;2024-01-11T09:58:50;-3.50;77.20
39103;DHT22;24847;48.218;16.414;2024-01-11T10:03:52;-3.30;76.50
39103;DHT22;24847;48.218;16.414;2024-01-11T10:08:55;-3.30;76.30
39103;DHT22;24847;48.218;16.414;2024-01-11T10:13:59;-3.20;75.90
39103;DHT22;24847;48.218;16.414;2024-01-11T10:19:02;-3.10;75.80
39103;DHT22;24847;48.218;16.414;2024-01-11T10:24:05;-3.10;75.40
39103;DHT22;24847;48.218;16.414;2024-01-11T10:29:08;-3.10;75.30
39103;DHT22;24847;48.218;16.414;2024-01-11T10:34:11;-3.10;74.90
39103;DHT22;24847;48.218;16.414;2024-01-11T10:39:14;-3.00;74.70
39103;DHT22;24847;48.218;16.414;2024-01-11T10:44:21;-2.90;75.00
39103;DHT22;24847;48.218;16.414;2024-01-11T10:49:27;-3.00;75.90
39103;DHT22;24847;48.218;16.414;2024-01-11T10:54:36;-3.10;75.50
39103;DHT22;24847;48.218;16.414;2024-01-11T10:59:40;-3.00;75.60
39103;DHT22;24847;48.218;16.414;2024-01-11T11:04:44;-3.10;74.30
39103;DHT22;24847;48.218;16.414;2024-01-11T11:09:49;-3.10;74.40
39103;DHT22;24847;48.218;16.414;2024-01-11T11:15:13;-3.00;74.20
39103;DHT22;24847;48.218;16.414;2024-01-11T11:20:34;-2.90;74.00
39103;DHT22;24847;48.218;16.414;2024-01-11T11:25:55;-2.80;73.70
39103;DHT22;24847;48.218;16.414;2024-01-11T11:31:03;-2.50;73.50
39103;DHT22;24847;48.218;16.414;2024-01-11T11:36:12;-2.30;72.20
39103;DHT22;24847;48.218;16.414;2024-01-11T11:41:17;-2.10;71.50
39103;DHT22;24847;48.218;16.414;2024-01-11T11:46:40;-1.60;69.90
39103;DHT22;24847;48.218;16.414;2024-01-11T11:51:43;-1.80;70.20
39103;DHT22;24847;48.218;16.414;2024-01-11T11:56:45;-1.80;71.10
39103;DHT22;24847;48.218;16.414;2024-01-11T12:01:49;-2.00;70.70
39103;DHT22;24847;48.218;16.414;2024-01-11T12:07:11;-1.70;70.60
39103;DHT22;24847;48.218;16.414;2024-01-11T12:12:13;-1.30;70.50
39103;DHT22;24847;48.218;16.414;2024-01-11T12:17:17;-0.90;69.00
39103;DHT22;24847;48.218;16.414;2024-01-11T12:22:19;-0.80;67.50
39103;DHT22;24847;48.218;16.414;2024-01-11T12:27:21;-0.50;66.50
39103;DHT22;24847;48.218;16.414;2024-01-11T12:32:25;-0.60;66.70
39103;DHT22;24847;48.218;16.414;2024-01-11T12:37:30;-0.50;65.80
39103;DHT22;24847;48.218;16.414;2024-01-11T12:42:34;-0.50;65.40
39103;DHT22;24847;48.218;16.414;2024-01-11T12:47:38;-0.70;65.40
39103;DHT22;24847;48.218;16.414;2024-01-11T12:52:41;-1.10;67.20
39103;DHT22;24847;48.218;16.414;2024-01-11T12:57:43;-1.20;67.60
39103;DHT22;24847;48.218;16.414;2024-01-11T13:02:48;-1.10;68.00
39103;DHT22;24847;48.218;16.414;2024-01-11T13:07:52;-1.00;68.10
39103;DHT22;24847;48.218;16.414;2024-01-11T13:12:54;-1.00;68.10
39103;DHT22;24847;48.218;16.414;2024-01-11T13:17:57;-1.00;68.00
39103;DHT22;24847;48.218;16.414;2024-01-11T13:23:15;-0.90;67.80
39103;DHT22;24847;48.218;16.414;2024-01-11T13:28:20;-0.90;68.30
39103;DHT22;24847;48.218;16.414;2024-01-11T13:33:24;-0.80;67.70
39103;DHT22;24847;48.218;16.414;2024-01-11T13:38:26;-0.70;66.80
39103;DHT22;24847;48.218;16.414;2024-01-11T13:43:28;-0.70;66.50
39103;DHT22;24847;48.218;16.414;2024-01-11T13:48:32;-0.50;65.70
39103;DHT22;24847;48.218;16.414;2024-01-11T13:53:34;-0.50;66.10
39103;DHT22;24847;48.218;16.414;2024-01-11T13:58:37;-0.50;66.00
39103;DHT22;24847;48.218;16.414;2024-01-11T14:03:41;-0.50;66.40
39103;DHT22;24847;48.218;16.414;2024-01-11T14:08:43;-0.60;66.30
39103;DHT22;24847;48.218;16.414;2024-01-11T14:13:45;-0.70;66.20
39103;DHT22;24847;48.218;16.414;2024-01-11T14:18:49;-0.70;66.40
39103;DHT22;24847;48.218;16.414;2024-01-11T14:23:51;-0.60;65.40
39103;DHT22;24847;48.218;16.414;2024-01-11T14:28:53;-0.70;65.40
39103;DHT22;24847;48.218;16.414;2024-01-11T14:33:57;-0.70;65.20
39103;DHT22;24847;48.218;16.414;2024-01-11T14:39:00;-0.80;65.00
39103;DHT22;24847;48.218;16.414;2024-01-11T14:44:04;-0.70;65.50
39103;DHT22;24847;48.218;16.414;2024-01-11T14:49:08;-0.70;64.30
39103;DHT22;24847;48.218;16.414;2024-01-11T14:54:10;-0.80;64.90
39103;DHT22;24847;48.218;16.414;2024-01-11T14:59:12;-0.80;65.40
39103;DHT22;24847;48.218;16.414;2024-01-11T15:04:16;-0.70;65.00
39103;DHT22;24847;48.218;16.414;2024-01-11T15:09:19;-0.80;64.70
39103;DHT22;24847;48.218;16.414;2024-01-11T15:14:21;-0.80;63.70
39103;DHT22;24847;48.218;16.414;2024-01-11T15:19:25;-0.80;64.30
39103;DHT22;24847;48.218;16.414;2024-01-11T15:24:27;-0.70;64.20
39103;DHT22;24847;48.218;16.414;2024-01-11T15:29:33;-0.80;65.30
39103;DHT22;24847;48.218;16.414;2024-01-11T15:34:37;-0.80;64.30
39103;DHT22;24847;48.218;16.414;2024-01-11T15:39:39;-0.90;64.90
39103;DHT22;24847;48.218;16.414;2024-01-11T15:44:42;-0.90;65.20
39103;DHT22;24847;48.218;16.414;2024-01-11T15:49:46;-0.90;65.70
39103;DHT22;24847;48.218;16.414;2024-01-11T15:54:48;-0.90;66.00
39103;DHT22;24847;48.218;16.414;2024-01-11T15:59:51;-0.90;66.10
39103;DHT22;24847;48.218;16.414;2024-01-11T16:04:56;-0.80;66.40
39103;DHT22;24847;48.218;16.414;2024-01-11T16:09:59;-0.80;66.40
39103;DHT22;24847;48.218;16.414;2024-01-11T16:15:01;-0.90;67.20
39103;DHT22;24847;48.218;16.414;2024-01-11T16:20:06;-0.80;67.40
39103;DHT22;24847;48.218;16.414;2024-01-11T16:25:10;-0.80;67.60
39103;DHT22;24847;48.218;16.414;2024-01-11T16:30:13;-0.80;67.10
39103;DHT22;24847;48.218;16.414;2024-01-11T16:35:17;-0.70;67.20
39103;DHT22;24847;48.218;16.414;2024-01-11T16:40:19;-0.70;67.40
39103;DHT22;24847;48.218;16.414;2024-01-11T16:45:22;-0.80;67.80
39103;DHT22;24847;48.218;16.414;2024-01-11T16:50:26;-0.70;68.60
39103;DHT22;24847;48.218;16.414;2024-01-11T16:55:28;-0.70;68.00
39103;DHT22;24847;48.218;16.414;2024-01-11T17:00:30;-0.70;67.80
39103;DHT22;24847;48.218;16.414;2024-01-11T17:05:34;-0.70;67.80
39103;DHT22;24847;48.218;16.414;2024-01-11T17:10:37;-0.70;67.50
39103;DHT22;24847;48.218;16.414;2024-01-11T17:15:40;-0.80;67.90
39103;DHT22;24847;48.218;16.414;2024-01-11T17:20:43;-0.70;67.50
39103;DHT22;24847;48.218;16.414;2024-01-11T17:25:46;-0.60;67.10
39103;DHT22;24847;48.218;16.414;2024-01-11T17:30:48;-0.70;67.00
39103;DHT22;24847;48.218;16.414;2024-01-11T17:35:51;-0.60;66.20
39103;DHT22;24847;48.218;16.414;2024-01-11T17:40:54;-0.50;66.40
39103;DHT22;24847;48.218;16.414;2024-01-11T17:45:56;-0.50;66.00
39103;DHT22;24847;48.218;16.414;2024-01-11T17:50:59;-0.50;65.00
39103;DHT22;24847;48.218;16.414;2024-01-11T17:56:03;-0.60;65.00
39103;DHT22;24847;48.218;16.414;2024-01-11T18:01:05;-0.50;64.80
39103;DHT22;24847;48.218;16.414;2024-01-11T18:06:10;-0.60;64.60
39103;DHT22;24847;48.218;16.414;2024-01-11T18:11:12;-0.50;63.90
39103;DHT22;24847;48.218;16.414;2024-01-11T18:16:15;-0.40;63.10
39103;DHT22;24847;48.218;16.414;2024-01-11T18:21:19;-0.60;62.70
39103;DHT22;24847;48.218;16.414;2024-01-11T18:26:21;-0.40;62.10
39103;DHT22;24847;48.218;16.414;2024-01-11T18:31:24;-0.40;62.10
39103;DHT22;24847;48.218;16.414;2024-01-11T18:36:27;-0.40;61.50
39103;DHT22;24847;48.218;16.414;2024-01-11T18:41:30;-0.30;61.10
39103;DHT22;24847;48.218;16.414;2024-01-11T18:46:37;-0.30;61.10
39103;DHT22;24847;48.218;16.414;2024-01-11T18:51:41;-0.30;61.20
39103;DHT22;24847;48.218;16.414;2024-01-11T18:56:43;-0.30;61.10
39103;DHT22;24847;48.218;16.414;2024-01-11T19:01:47;-0.30;61.00
39103;DHT22;24847;48.218;16.414;2024-01-11T19:06:51;-0.30;60.70
39103;DHT22;24847;48.218;16.414;2024-01-11T19:11:55;-0.30;60.20
39103;DHT22;24847;48.218;16.414;2024-01-11T19:16:59;-0.20;59.40
39103;DHT22;24847;48.218;16.414;2024-01-11T19:22:02;-0.10;59.30
39103;DHT22;24847;48.218;16.414;2024-01-11T19:27:05;-0.10;59.30
39103;DHT22;24847;48.218;16.414;2024-01-11T19:32:07;-0.10;59.10
39103;DHT22;24847;48.218;16.414;2024-01-11T19:37:11;-0.10;59.20
39103;DHT22;24847;48.218;16.414;2024-01-11T19:42:13;-0.10;59.50
39103;DHT22;24847;48.218;16.414;2024-01-11T19:47:16;0.00;59.10
39103;DHT22;24847;48.218;16.414;2024-01-11T19:52:21;0.00;58.60
39103;DHT22;24847;48.218;16.414;2024-01-11T19:57:23;0.00;59.20
39103;DHT22;24847;48.218;16.414;2024-01-11T20:02:26;0.00;59.20
39103;DHT22;24847;48.218;16.414;2024-01-11T20:07:29;0.00;59.30
39103;DHT22;24847;48.218;16.414;2024-01-11T20:12:32;-0.10;59.70
39103;DHT22;24847;48.218;16.414;2024-01-11T20:17:35;0.00;59.90
39103;DHT22;24847;48.218;16.414;2024-01-11T20:22:38;0.00;59.90
39103;DHT22;24847;48.218;16.414;2024-01-11T20:27:40;0.10;59.90
39103;DHT22;24847;48.218;16.414;2024-01-11T20:32:42;0.00;60.40
39103;DHT22;24847;48.218;16.414;2024-01-11T20:37:46;0.00;60.80
39103;DHT22;24847;48.218;16.414;2024-01-11T20:42:48;0.00;61.30
39103;DHT22;24847;48.218;16.414;2024-01-11T20:47:51;0.00;62.30
39103;DHT22;24847;48.218;16.414;2024-01-11T20:52:54;0.00;61.60
39103;DHT22;24847;48.218;16.414;2024-01-11T20:57:57;0.00;61.90
39103;DHT22;24847;48.218;16.414;2024-01-11T21:03:00;-0.10;62.20
39103;DHT22;24847;48.218;16.414;2024-01-11T21:08:04;0.00;61.80
39103;DHT22;24847;48.218;16.414;2024-01-11T21:13:06;0.00;62.20
39103;DHT22;24847;48.218;16.414;2024-01-11T21:18:09;0.00;62.80
39103;DHT22;24847;48.218;16.414;2024-01-11T21:23:12;0.00;63.00
39103;DHT22;24847;48.218;16.414;2024-01-11T21:28:17;0.00;63.20
39103;DHT22;24847;48.218;16.414;2024-01-11T21:33:20;-0.10;63.60
39103;DHT22;24847;48.218;16.414;2024-01-11T21:38:24;-0.10;64.00
39103;DHT22;24847;48.218;16.414;2024-01-11T21:43:26;-0.10;64.20
39103;DHT22;24847;48.218;16.414;2024-01-11T21:48:28;-0.10;65.10
39103;DHT22;24847;48.218;16.414;2024-01-11T21:53:33;-0.10;65.30
39103;DHT22;24847;48.218;16.414;2024-01-11T21:58:36;-0.20;64.80
39103;DHT22;24847;48.218;16.414;2024-01-11T22:03:38;-0.10;64.80
39103;DHT22;24847;48.218;16.414;2024-01-11T22:08:42;-0.10;64.80
39103;DHT22;24847;48.218;16.414;2024-01-11T22:13:44;-0.10;65.70
39103;DHT22;24847;48.218;16.414;2024-01-11T22:18:46;-0.10;64.90
39103;DHT22;24847;48.218;16.414;2024-01-11T22:23:50;0.00;65.00
39103;DHT22;24847;48.218;16.414;2024-01-11T22:28:53;0.00;65.00
39103;DHT22;24847;48.218;16.414;2024-01-11T22:33:55;0.00;65.00
39103;DHT22;24847;48.218;16.414;2024-01-11T22:38:58;0.00;66.30
39103;DHT22;24847;48.218;16.414;2024-01-11T22:44:00;0.00;65.50
39103;DHT22;24847;48.218;16.414;2024-01-11T22:49:03;0.10;65.40
39103;DHT22;24847;48.218;16.414;2024-01-11T22:54:06;0.10;65.60
39103;DHT22;24847;48.218;16.414;2024-01-11T22:59:08;0.20;65.00
39103;DHT22;24847;48.218;16.414;2024-01-11T23:04:11;0.10;65.80
39103;DHT22;24847;48.218;16.414;2024-01-11T23:09:14;0.10;64.70
39103;DHT22;24847;48.218;16.414;2024-01-11T23:14:16;0.10;65.10
39103;DHT22;24847;48.218;16.414;2024-01-11T23:19:20;0.20;64.30
39103;DHT22;24847;48.218;16.414;2024-01-11T23:24:23;0.20;64.20
39103;DHT22;24847;48.218;16.414;2024-01-11T23:29:25;0.20;63.90
39103;DHT22;24847;48.218;16.414;2024-01-11T23:34:28;0.20;63.50
39103;DHT22;24847;48.218;16.414;2024-01-11T23:39:32;0.10;63.60
39103;DHT22;24847;48.218;16.414;2024-01-11T23:44:34;0.20;63.90
39103;DHT22;24847;48.218;16.414;2024-01-11T23:49:39;0.20;63.80
39103;DHT22;24847;48.218;16.414;2024-01-11T23:54:43;0.30;63.60
39103;DHT22;24847;48.218;16.414;2024-01-11T23:59:45;0.20;63.10
